Terminal Aerodrome Forecast
Issued by NWS

Home | Current Version | Previous Version | Text Only | Print | Product List | Glossary On
Versions: 1 2 3 4 5 6 7 8 9 10 11 12 13 14 15 16 17 18 19 20 21 22 23 24 25 26 27
000
FTUS41 KRLX 132300 CCA
TAFCKB
TAF COR
KCKB 132356Z 1400/1424 23005KT 6SM SHRA VCTS BKN045CB
      TEMPO 1400/1401 2SM SHRA BKN035
     FM140300 20003KT 3SM TSRA BKN040CB
     FM140500 VRB03KT 4SM SHRA BR VCTS OVC040CB
     FM140900 VRB03KT 2SM BR VCTS OVC035CB
     FM141300 22007KT 6SM SHRA VCTS BKN060CB
     FM142200 22006KT P6SM VCTS BKN040CB=

USA.gov is the U.S. government's official web portal to all federal, state and local government web resources and services.